createdAt,value
2022-10-19T00:01:32.866Z,12.22
2022-10-19T00:04:03.533Z,12.25
2022-10-19T00:06:36.286Z,12.24
2022-10-19T00:09:07.171Z,12.21
2022-10-19T00:11:38.840Z,12.23
2022-10-19T00:14:08.881Z,12.22
2022-10-19T00:16:39.127Z,12.18
2022-10-19T00:19:11.187Z,12.08
2022-10-19T00:21:40.501Z,12.02
2022-10-19T00:24:09.679Z,11.96
2022-10-19T00:26:38.548Z,11.93
2022-10-19T00:29:07.985Z,11.88
2022-10-19T00:31:36.678Z,11.87
2022-10-19T00:34:04.997Z,11.82
2022-10-19T00:36:36.551Z,11.76
2022-10-19T00:39:07.254Z,11.67
2022-10-19T00:41:37.542Z,11.62
2022-10-19T00:44:26.768Z,11.57
2022-10-19T00:47:01.809Z,11.48
2022-10-19T00:49:38.952Z,11.45
2022-10-19T00:52:11.239Z,11.46
2022-10-19T00:54:41.891Z,11.47
2022-10-19T00:57:12.107Z,11.48
2022-10-19T00:59:42.377Z,11.45
2022-10-19T01:02:10.874Z,11.43
2022-10-19T01:04:44.453Z,11.39
2022-10-19T01:07:13.616Z,11.34
2022-10-19T01:09:41.827Z,11.28
2022-10-19T01:12:30.889Z,11.19
2022-10-19T01:15:19.718Z,11.08
2022-10-19T01:17:55.058Z,11.04
2022-10-19T01:21:09.038Z,11.03
2022-10-19T01:24:07.152Z,11.02
2022-10-19T01:27:06.730Z,11.02
2022-10-19T01:29:56.481Z,11.05
2022-10-19T01:32:34.827Z,11.08
2022-10-19T01:35:10.726Z,11.10
2022-10-19T01:37:47.566Z,11.08
2022-10-19T01:40:25.549Z,11.07
2022-10-19T01:43:05.591Z,11.06
2022-10-19T01:45:43.379Z,11.06
2022-10-19T01:48:17.091Z,11.05
2022-10-19T01:50:51.299Z,11.06
2022-10-19T01:53:21.458Z,11.06
2022-10-19T01:55:53.132Z,11.06
2022-10-19T01:58:27.534Z,11.09
2022-10-19T02:01:02.222Z,11.11
2022-10-19T02:03:33.826Z,11.11
2022-10-19T02:06:07.356Z,11.07
2022-10-19T02:08:40.581Z,11.03
2022-10-19T02:11:11.391Z,11.00
2022-10-19T02:13:42.613Z,10.98
2022-10-19T02:16:16.586Z,10.97
2022-10-19T02:18:48.785Z,10.95
2022-10-19T02:21:19.587Z,10.94
2022-10-19T02:23:49.362Z,10.94
2022-10-19T02:26:24.939Z,10.96
2022-10-19T02:28:57.713Z,10.96
2022-10-19T02:31:27.280Z,10.96
2022-10-19T02:33:55.804Z,10.94
2022-10-19T02:36:26.687Z,10.94
2022-10-19T02:38:55.573Z,10.93
2022-10-19T02:41:31.025Z,10.88
2022-10-19T02:46:49.697Z,10.82
2022-10-19T02:49:19.835Z,10.81
2022-10-19T02:52:00.135Z,10.80
2022-10-19T02:54:32.426Z,10.81
2022-10-19T02:57:02.338Z,10.79
2022-10-19T02:59:34.054Z,10.79
2022-10-19T03:02:02.814Z,10.80
2022-10-19T03:04:31.760Z,10.83
2022-10-19T03:07:00.549Z,10.80
2022-10-19T03:09:29.167Z,10.76
2022-10-19T03:12:01.291Z,10.72
2022-10-19T03:14:38.966Z,10.69
2022-10-19T03:17:07.577Z,10.67
2022-10-19T03:19:36.211Z,10.65
2022-10-19T03:22:04.907Z,10.64
2022-10-19T03:24:33.742Z,10.63
2022-10-19T03:27:01.974Z,10.59
2022-10-19T03:29:30.419Z,10.55
2022-10-19T03:31:58.820Z,10.52
2022-10-19T03:34:29.320Z,10.48
2022-10-19T03:36:58.715Z,10.44
2022-10-19T03:39:27.832Z,10.40
2022-10-19T03:41:56.097Z,10.36
2022-10-19T03:44:24.472Z,10.34
2022-10-19T03:47:06.043Z,10.32
2022-10-19T03:49:36.761Z,10.32
2022-10-19T03:52:09.633Z,10.32
2022-10-19T03:54:38.261Z,10.32
2022-10-19T03:57:06.813Z,10.33
2022-10-19T03:59:35.178Z,10.33
2022-10-19T04:02:07.059Z,10.32
2022-10-19T04:04:36.225Z,10.30
2022-10-19T04:07:05.826Z,10.29
2022-10-19T04:09:34.067Z,10.30
2022-10-19T04:12:04.168Z,10.31
2022-10-19T04:14:39.386Z,10.33
2022-10-19T04:17:23.703Z,10.33
2022-10-19T04:19:52.119Z,10.34
2022-10-19T04:22:23.108Z,10.34
2022-10-19T04:24:51.350Z,10.33
2022-10-19T04:27:21.298Z,10.32
2022-10-19T04:29:51.021Z,10.32
2022-10-19T04:32:30.941Z,10.29
2022-10-19T04:35:08.583Z,10.31
2022-10-19T04:40:35.823Z,10.32
2022-10-19T04:43:05.477Z,10.30
2022-10-19T04:45:35.911Z,10.27
2022-10-19T04:48:05.151Z,10.26
2022-10-19T04:50:33.868Z,10.24
2022-10-19T04:53:02.183Z,10.25
2022-10-19T04:55:30.494Z,10.25
2022-10-19T04:58:02.211Z,10.27
2022-10-19T05:00:32.709Z,10.28
2022-10-19T05:03:01.472Z,10.30
2022-10-19T05:05:31.461Z,10.31
2022-10-19T05:08:05.598Z,10.33
2022-10-19T05:10:34.255Z,10.32
2022-10-19T05:13:03.275Z,10.31
2022-10-19T05:15:31.833Z,10.29
2022-10-19T05:18:00.422Z,10.28
2022-10-19T05:20:31.085Z,10.26
2022-10-19T05:23:03.263Z,10.25
2022-10-19T05:25:35.092Z,10.24
2022-10-19T05:28:04.668Z,10.25
2022-10-19T05:30:32.837Z,10.27
2022-10-19T05:33:05.104Z,10.28
2022-10-19T05:35:33.572Z,10.27
2022-10-19T05:38:01.922Z,10.27
2022-10-19T05:40:36.933Z,10.28
2022-10-19T05:43:05.665Z,10.27
2022-10-19T05:45:34.132Z,10.25
2022-10-19T05:48:05.256Z,10.22
2022-10-19T05:50:36.175Z,10.22
2022-10-19T05:53:04.399Z,10.22
2022-10-19T05:55:35.744Z,10.23
2022-10-19T05:58:04.233Z,10.23
2022-10-19T06:00:32.515Z,10.25
2022-10-19T06:03:00.824Z,10.30
2022-10-19T06:05:29.976Z,10.31
2022-10-19T06:07:58.488Z,10.33
2022-10-19T06:10:27.028Z,10.33
2022-10-19T06:12:58.092Z,10.34
2022-10-19T06:15:26.355Z,10.33
2022-10-19T06:17:58.662Z,10.34
2022-10-19T06:20:29.000Z,10.40
2022-10-19T06:22:57.689Z,10.43
2022-10-19T06:25:26.075Z,10.43
2022-10-19T06:27:58.224Z,10.44
2022-10-19T06:30:26.887Z,10.47
2022-10-19T06:32:58.182Z,10.45
2022-10-19T06:35:27.035Z,10.44
2022-10-19T06:37:58.118Z,10.46
2022-10-19T06:40:26.642Z,10.48
2022-10-19T06:42:58.301Z,10.52
2022-10-19T06:45:26.988Z,10.57
2022-10-19T06:47:55.469Z,10.57
2022-10-19T06:50:25.121Z,10.57
2022-10-19T06:52:55.499Z,10.58
2022-10-19T06:55:27.631Z,10.62
2022-10-19T06:57:55.964Z,10.65
2022-10-19T07:00:29.103Z,10.67
2022-10-19T07:03:01.982Z,10.70
2022-10-19T07:05:30.506Z,10.70
2022-10-19T07:07:58.868Z,10.73
2022-10-19T07:10:28.951Z,10.80
2022-10-19T07:13:02.603Z,10.85
2022-10-19T07:15:42.774Z,10.95
2022-10-19T07:18:11.656Z,11.02
2022-10-19T07:20:42.596Z,11.06
2022-10-19T07:23:13.685Z,11.10
2022-10-19T07:25:42.215Z,11.18
2022-10-19T07:28:10.543Z,11.22
2022-10-19T07:30:39.429Z,11.25
2022-10-19T07:33:07.947Z,11.25
2022-10-19T07:35:36.857Z,11.26
2022-10-19T07:38:05.174Z,11.39
2022-10-19T07:40:35.215Z,11.52
2022-10-19T07:43:06.817Z,11.65
2022-10-19T07:45:35.540Z,11.71
2022-10-19T07:48:04.309Z,11.74
2022-10-19T07:50:32.660Z,11.77
2022-10-19T07:53:02.887Z,11.77
2022-10-19T07:55:34.240Z,11.74
2022-10-19T07:58:02.716Z,11.77
2022-10-19T08:00:31.194Z,11.83
2022-10-19T08:03:43.171Z,11.92
2022-10-19T08:05:49.349Z,11.99
2022-10-19T08:08:17.683Z,12.02
2022-10-19T08:10:46.017Z,12.05
2022-10-19T08:13:14.709Z,12.07
2022-10-19T08:15:43.197Z,12.07
2022-10-19T08:18:11.412Z,11.97
2022-10-19T08:20:42.203Z,11.83
2022-10-19T08:23:11.061Z,11.72
2022-10-19T08:25:39.495Z,11.63
2022-10-19T08:28:07.869Z,11.59
2022-10-19T08:30:39.219Z,11.56
2022-10-19T08:33:07.734Z,11.56
2022-10-19T08:35:36.899Z,11.54
2022-10-19T08:38:05.093Z,11.53
2022-10-19T08:40:33.339Z,11.50
2022-10-19T08:43:12.247Z,11.50
2022-10-19T08:45:43.103Z,11.52
2022-10-19T08:48:28.442Z,11.56
2022-10-19T08:51:03.686Z,11.58
2022-10-19T08:53:40.243Z,11.60
2022-10-19T08:56:38.802Z,11.58
2022-10-19T08:59:24.373Z,11.54
2022-10-19T09:01:58.199Z,11.55
2022-10-19T09:04:33.743Z,11.62
2022-10-19T09:07:26.759Z,11.65
2022-10-19T09:09:59.629Z,11.67
2022-10-19T09:12:47.082Z,11.68
2022-10-19T09:15:18.788Z,11.75
2022-10-19T09:17:49.671Z,11.83
2022-10-19T09:20:24.144Z,11.91
2022-10-19T09:23:02.237Z,11.94
2022-10-19T09:25:33.711Z,11.97
2022-10-19T09:28:14.714Z,11.98
2022-10-19T09:30:45.725Z,11.94
2022-10-19T09:33:24.002Z,11.90
2022-10-19T09:35:54.113Z,11.88
2022-10-19T09:38:27.263Z,11.83
2022-10-19T09:40:57.733Z,11.71
2022-10-19T09:43:27.878Z,11.60
2022-10-19T09:46:09.636Z,11.51
2022-10-19T09:48:49.930Z,11.42
2022-10-19T09:51:19.422Z,11.31
2022-10-19T09:53:51.665Z,11.23
2022-10-19T09:56:26.366Z,11.16
2022-10-19T09:58:56.823Z,11.17
2022-10-19T10:01:43.489Z,11.22
2022-10-19T10:04:16.409Z,11.28
2022-10-19T10:06:47.145Z,11.39
2022-10-19T10:09:18.346Z,11.45
2022-10-19T10:11:52.147Z,11.41
2022-10-19T10:14:24.628Z,11.36
2022-10-19T10:16:57.140Z,11.25
2022-10-19T10:19:29.314Z,11.12
2022-10-19T10:21:59.544Z,10.90
2022-10-19T10:24:31.498Z,10.67
2022-10-19T10:27:02.163Z,10.44
2022-10-19T10:29:33.110Z,10.24
2022-10-19T10:32:05.540Z,10.11
2022-10-19T10:34:49.803Z,10.05
2022-10-19T10:37:25.015Z,9.97
2022-10-19T10:39:57.907Z,9.94
2022-10-19T10:42:34.819Z,9.95
2022-10-19T10:45:16.155Z,9.97
2022-10-19T10:47:51.810Z,9.99
2022-10-19T10:50:26.708Z,10.00
2022-10-19T10:53:00.531Z,10.06
2022-10-19T10:55:30.386Z,10.08
2022-10-19T10:58:14.023Z,10.06
2022-10-19T11:00:43.877Z,10.05
2022-10-19T11:03:19.966Z,10.06
2022-10-19T11:05:54.340Z,10.12
2022-10-19T11:08:28.224Z,10.19
2022-10-19T11:11:04.322Z,10.30
2022-10-19T11:13:38.756Z,10.52
2022-10-19T11:16:14.815Z,10.72
2022-10-19T11:18:47.118Z,10.85
2022-10-19T11:21:24.226Z,10.88
2022-10-19T11:24:07.292Z,11.06
2022-10-19T11:26:50.073Z,11.33
2022-10-19T11:29:33.450Z,11.58
2022-10-19T11:32:02.650Z,11.81
2022-10-19T11:34:55.669Z,12.08
2022-10-19T11:38:00.414Z,12.27
2022-10-19T11:40:54.290Z,12.36
2022-10-19T11:43:42.118Z,12.25
2022-10-19T11:46:17.172Z,12.04
2022-10-19T11:49:05.535Z,11.88
2022-10-19T11:51:46.399Z,11.75
2022-10-19T11:54:28.619Z,11.69
2022-10-19T11:57:07.264Z,11.70
2022-10-19T12:00:14.015Z,11.75
2022-10-19T12:03:11.716Z,11.85
2022-10-19T12:05:51.816Z,11.88
2022-10-19T12:08:45.716Z,11.95
2022-10-19T12:11:27.366Z,12.01
2022-10-19T12:14:00.352Z,11.98
2022-10-19T12:16:42.234Z,11.94
2022-10-19T12:19:20.284Z,11.91
2022-10-19T12:21:50.717Z,11.84
2022-10-19T12:24:31.178Z,11.73
2022-10-19T12:27:00.803Z,11.62
2022-10-19T12:29:35.726Z,11.53
2022-10-19T12:32:06.905Z,11.45
2022-10-19T12:34:52.336Z,11.42
2022-10-19T12:37:32.402Z,11.42
2022-10-19T12:40:08.207Z,11.42
2022-10-19T12:42:51.071Z,11.44
2022-10-19T12:45:31.724Z,11.44
2022-10-19T12:48:20.421Z,11.41
2022-10-19T12:51:11.868Z,11.34
2022-10-19T12:53:42.713Z,11.33
2022-10-19T12:56:17.363Z,11.37
2022-10-19T12:58:54.808Z,11.38
2022-10-19T13:01:43.774Z,11.38
2022-10-19T13:04:18.358Z,11.38
2022-10-19T13:06:51.819Z,11.39
2022-10-19T13:09:29.204Z,11.41
2022-10-19T13:12:27.379Z,11.39
2022-10-19T13:14:57.152Z,11.38
2022-10-19T13:17:45.120Z,11.41
2022-10-19T13:20:51.968Z,11.44
2022-10-19T13:23:41.534Z,11.49
2022-10-19T13:26:39.887Z,11.52
2022-10-19T13:29:28.737Z,11.54
2022-10-19T13:32:42.728Z,11.56
2022-10-19T13:35:35.083Z,11.59
2022-10-19T13:38:27.647Z,11.59
2022-10-19T13:41:11.007Z,11.62
2022-10-19T13:43:50.952Z,11.67
2022-10-19T13:46:42.112Z,11.73
2022-10-19T13:49:40.907Z,11.73
2022-10-19T13:52:31.872Z,11.69
2022-10-19T13:55:24.303Z,11.57
2022-10-19T13:58:18.928Z,11.43
2022-10-19T14:01:04.892Z,11.35
2022-10-19T14:04:03.389Z,11.32
2022-10-19T14:06:40.124Z,11.26
2022-10-19T14:09:31.510Z,11.17
2022-10-19T14:12:06.802Z,11.02
2022-10-19T14:14:44.315Z,10.89
2022-10-19T14:19:48.634Z,10.77
2022-10-19T14:22:29.403Z,10.75
2022-10-19T14:25:07.526Z,10.73
2022-10-19T14:27:38.291Z,10.72
2022-10-19T14:30:23.622Z,10.67
2022-10-19T14:32:55.727Z,10.61
2022-10-19T14:35:36.576Z,10.59
2022-10-19T14:38:09.094Z,10.60
2022-10-19T14:40:42.778Z,10.59
2022-10-19T14:43:25.832Z,10.56
2022-10-19T14:46:13.470Z,10.49
2022-10-19T14:48:46.486Z,10.41
2022-10-19T14:51:33.288Z,10.33
2022-10-19T14:54:05.905Z,10.25
2022-10-19T14:56:43.501Z,10.19
2022-10-19T14:59:24.397Z,10.13
2022-10-19T15:02:00.157Z,10.06
2022-10-19T15:04:33.383Z,10.01
2022-10-19T15:07:04.906Z,9.96
2022-10-19T15:09:47.681Z,9.88
2022-10-19T15:12:19.326Z,9.79
2022-10-19T15:14:49.258Z,9.71
2022-10-19T15:17:28.579Z,9.61
2022-10-19T15:20:00.645Z,9.49
2022-10-19T15:22:42.285Z,9.38
2022-10-19T15:25:33.701Z,9.27
2022-10-19T15:28:20.174Z,9.15
2022-10-19T15:31:02.687Z,9.05
2022-10-19T15:33:39.765Z,8.94
2022-10-19T15:36:16.571Z,8.85
2022-10-19T15:38:47.088Z,8.78
2022-10-19T15:41:30.508Z,8.73
2022-10-19T15:44:03.462Z,8.66
2022-10-19T15:46:56.789Z,8.60
2022-10-19T15:49:58.978Z,8.55
2022-10-19T15:52:29.761Z,8.46
2022-10-19T15:54:59.649Z,8.39
2022-10-19T15:57:31.754Z,8.32
2022-10-19T16:00:02.620Z,8.25
2022-10-19T16:02:32.861Z,8.21
2022-10-19T16:07:44.022Z,8.12
2022-10-19T16:10:17.470Z,8.08
2022-10-19T16:12:48.003Z,8.03
2022-10-19T16:15:27.337Z,7.98
2022-10-19T16:18:02.934Z,7.92
2022-10-19T16:20:31.572Z,7.87
2022-10-19T16:23:02.106Z,7.82
2022-10-19T16:25:32.425Z,7.79
2022-10-19T16:28:01.433Z,7.77
2022-10-19T16:30:29.972Z,7.74
2022-10-19T16:32:58.520Z,7.71
2022-10-19T16:35:27.789Z,7.68
2022-10-19T16:37:56.347Z,7.65
2022-10-19T16:40:26.338Z,7.61
2022-10-19T16:42:58.196Z,7.58
2022-10-19T16:45:26.891Z,7.54
2022-10-19T16:47:56.181Z,7.51
2022-10-19T16:50:25.660Z,7.49
2022-10-19T16:53:05.642Z,7.46
2022-10-19T16:55:35.931Z,7.42
2022-10-19T16:58:04.509Z,7.38
2022-10-19T17:00:35.857Z,7.34
2022-10-19T17:03:04.845Z,7.31
2022-10-19T17:05:38.249Z,7.28
2022-10-19T17:08:07.759Z,7.25
2022-10-19T17:10:36.426Z,7.21
2022-10-19T17:13:05.127Z,7.17
2022-10-19T17:15:42.982Z,7.11
2022-10-19T17:18:12.091Z,7.07
2022-10-19T17:20:41.665Z,7.03
2022-10-19T17:23:10.583Z,7.00
2022-10-19T17:25:47.512Z,6.99
2022-10-19T17:28:16.237Z,6.97
2022-10-19T17:30:47.133Z,6.95
2022-10-19T17:33:15.624Z,6.92
2022-10-19T17:35:44.224Z,6.89
2022-10-19T17:38:12.785Z,6.85
2022-10-19T17:40:43.078Z,6.82
2022-10-19T17:43:12.139Z,6.79
2022-10-19T17:45:45.194Z,6.78
2022-10-19T17:48:13.979Z,6.76
2022-10-19T17:50:45.146Z,6.74
2022-10-19T17:53:13.426Z,6.69
2022-10-19T17:55:42.408Z,6.64
2022-10-19T17:58:11.131Z,6.59
2022-10-19T18:00:41.718Z,6.55
2022-10-19T18:03:10.824Z,6.51
2022-10-19T18:05:40.286Z,6.46
2022-10-19T18:08:08.729Z,6.40
2022-10-19T18:10:37.498Z,6.34
2022-10-19T18:13:06.066Z,6.32
2022-10-19T18:15:34.620Z,6.28
2022-10-19T18:18:04.188Z,6.26
2022-10-19T18:20:32.993Z,6.24
2022-10-19T18:23:01.279Z,6.23
2022-10-19T18:25:42.549Z,6.21
2022-10-19T18:28:18.892Z,6.16
2022-10-19T18:30:47.486Z,6.11
2022-10-19T18:33:18.891Z,6.07
2022-10-19T18:35:47.490Z,6.04
2022-10-19T18:38:15.745Z,6.00
2022-10-19T18:40:43.978Z,5.97
2022-10-19T18:43:12.555Z,5.94
2022-10-19T18:45:50.195Z,5.91
2022-10-19T18:48:18.654Z,5.88
2022-10-19T18:50:47.213Z,5.86
2022-10-19T18:53:16.709Z,5.84
2022-10-19T18:55:45.619Z,5.80
2022-10-19T18:58:14.224Z,5.75
2022-10-19T19:00:45.837Z,5.71
2022-10-19T19:03:14.455Z,5.67
2022-10-19T19:05:43.093Z,5.62
2022-10-19T19:08:11.480Z,5.60
2022-10-19T19:10:39.850Z,5.58
2022-10-19T19:13:08.253Z,5.60
2022-10-19T19:15:36.813Z,5.64
2022-10-19T19:18:05.382Z,5.69
2022-10-19T19:20:34.268Z,5.74
2022-10-19T19:23:03.004Z,5.77
2022-10-19T19:25:31.802Z,5.70
2022-10-19T19:28:00.124Z,5.64
2022-10-19T19:30:28.704Z,5.58
2022-10-19T19:32:57.685Z,5.51
2022-10-19T19:35:26.947Z,5.45
2022-10-19T19:37:55.405Z,5.36
2022-10-19T19:40:24.806Z,5.30
2022-10-19T19:42:53.103Z,5.28
2022-10-19T19:45:21.521Z,5.26
2022-10-19T19:47:49.888Z,5.26
2022-10-19T19:50:18.450Z,5.21
2022-10-19T19:52:48.092Z,5.21
2022-10-19T19:55:16.658Z,5.22
2022-10-19T19:57:48.000Z,5.27
2022-10-19T20:00:16.870Z,5.34
2022-10-19T20:02:45.139Z,5.33
2022-10-19T20:05:13.448Z,5.23
2022-10-19T20:07:42.141Z,5.08
2022-10-19T20:10:10.710Z,4.99
2022-10-19T20:12:39.551Z,4.88
2022-10-19T20:15:10.310Z,4.79
2022-10-19T20:17:39.458Z,4.77
2022-10-19T20:20:10.970Z,4.73
2022-10-19T20:22:40.219Z,4.69
2022-10-19T20:25:09.666Z,4.70
2022-10-19T20:27:38.356Z,4.75
2022-10-19T20:30:09.845Z,4.76
2022-10-19T20:32:38.825Z,4.75
2022-10-19T20:35:08.645Z,4.78
2022-10-19T20:37:37.125Z,4.73
2022-10-19T20:40:08.943Z,4.62
2022-10-19T20:42:37.891Z,4.50
2022-10-19T20:45:08.673Z,4.39
2022-10-19T20:47:37.435Z,4.28
2022-10-19T20:50:07.812Z,4.21
2022-10-19T20:52:36.570Z,4.14
2022-10-19T20:55:07.226Z,4.09
2022-10-19T20:57:35.442Z,4.06
2022-10-19T21:00:05.195Z,4.05
2022-10-19T21:02:33.997Z,4.01
2022-10-19T21:05:02.685Z,3.96
2022-10-19T21:07:30.995Z,3.90
2022-10-19T21:09:59.366Z,3.83
2022-10-19T21:12:28.262Z,3.80
2022-10-19T21:14:56.589Z,3.79
2022-10-19T21:17:26.139Z,3.74
2022-10-19T21:19:58.385Z,3.68
2022-10-19T21:22:28.292Z,3.67
2022-10-19T21:24:56.745Z,3.70
2022-10-19T21:27:28.988Z,3.71
2022-10-19T21:29:57.420Z,3.76
2022-10-19T21:32:32.334Z,3.76
2022-10-19T21:35:01.370Z,3.80
2022-10-19T21:37:30.474Z,3.86
2022-10-19T21:39:58.931Z,3.79
2022-10-19T21:42:28.467Z,3.76
2022-10-19T21:45:01.393Z,3.73
2022-10-19T21:47:45.462Z,3.69
2022-10-19T21:50:16.808Z,3.64
2022-10-19T21:52:45.062Z,3.61
2022-10-19T21:55:13.423Z,3.66
2022-10-19T21:57:42.224Z,3.70
2022-10-19T22:00:13.194Z,3.75
2022-10-19T22:02:41.645Z,3.75
2022-10-19T22:05:10.222Z,3.75
2022-10-19T22:07:38.526Z,3.74
2022-10-19T22:10:10.101Z,3.66
2022-10-19T22:12:39.077Z,3.61
2022-10-19T22:15:11.003Z,3.63
2022-10-19T22:17:39.331Z,3.59
2022-10-19T22:20:10.734Z,3.51
2022-10-19T22:22:39.073Z,3.45
2022-10-19T22:25:08.718Z,3.38
2022-10-19T22:27:37.017Z,3.30
2022-10-19T22:30:09.184Z,3.27
2022-10-19T22:32:38.044Z,3.22
2022-10-19T22:35:07.546Z,3.16
2022-10-19T22:37:35.838Z,3.07
2022-10-19T22:40:05.510Z,2.97
2022-10-19T22:43:10.792Z,2.90
2022-10-19T22:45:40.006Z,2.82
2022-10-19T22:48:08.584Z,2.76
2022-10-19T22:50:37.803Z,2.78
2022-10-19T22:53:06.374Z,2.80
2022-10-19T22:55:35.197Z,2.79
2022-10-19T22:58:05.338Z,2.84
2022-10-19T23:00:34.005Z,2.87
2022-10-19T23:03:03.171Z,2.88
2022-10-19T23:05:31.868Z,2.96
2022-10-19T23:08:00.481Z,2.95
2022-10-19T23:10:29.450Z,2.90
2022-10-19T23:12:58.015Z,2.84
2022-10-19T23:15:27.178Z,2.82
2022-10-19T23:17:55.877Z,2.76
2022-10-19T23:20:25.547Z,2.70
2022-10-19T23:22:53.837Z,2.63
2022-10-19T23:25:22.687Z,2.58
2022-10-19T23:27:53.349Z,2.52
2022-10-19T23:30:22.308Z,2.49
2022-10-19T23:32:53.081Z,2.49
2022-10-19T23:35:21.490Z,2.54
2022-10-19T23:37:50.216Z,2.58
2022-10-19T23:40:18.779Z,2.61
2022-10-19T23:42:47.122Z,2.57
2022-10-19T23:45:15.655Z,2.52
2022-10-19T23:47:44.203Z,2.48
2022-10-19T23:50:12.716Z,2.43
2022-10-19T23:52:41.295Z,2.38
2022-10-19T23:55:10.788Z,2.33
2022-10-19T23:57:39.123Z,2.35
